Time;durP1;ratioP1;P1;durP2;ratioP2;P2;SDS_P1;SDS_P2;PMS_P1;PMS_P2;Temp;Humidity;BMP_temperature;BMP_pressure;BME280_temperature;BME280_humidity;BME280_pressure;Samples;Min_cycle;Max_cycle;Signal;HPM_P1;HPM_P2
2023/05/23 00:01:37;;;;;;;6.88;3.60;;;22.20;1.00;;;;;;5011988;28;20052;-47
2023/05/23 00:04:04;;;;;;;7.43;3.33;;;22.20;1.00;;;;;;5016103;28;20124;-47
2023/05/23 00:06:33;;;;;;;11.20;4.15;;;22.20;1.00;;;;;;5013320;28;20052;-47
2023/05/23 00:09:00;;;;;;;8.25;4.13;;;22.20;1.00;;;;;;5004415;28;20096;-47
2023/05/23 00:11:28;;;;;;;11.57;3.85;;;22.10;1.00;;;;;;5012142;28;20049;-49
2023/05/23 00:13:59;;;;;;;10.02;4.50;;;22.10;1.00;;;;;;5014123;28;20034;-47
2023/05/23 00:16:26;;;;;;;5.97;3.47;;;22.10;1.00;;;;;;4994646;28;20108;-47
2023/05/23 00:18:56;;;;;;;5.90;3.05;;;22.10;1.00;;;;;;5012006;28;20424;-48
2023/05/23 00:21:23;;;;;;;7.15;3.35;;;22.10;1.00;;;;;;5011985;28;20038;-48
2023/05/23 00:23:50;;;;;;;7.82;3.70;;;22.10;1.00;;;;;;5012682;28;20041;-49
2023/05/23 00:26:17;;;;;;;10.23;3.60;;;22.10;1.00;;;;;;5011828;28;20100;-49
2023/05/23 00:28:45;;;;;;;6.38;3.22;;;22.10;1.00;;;;;;5012753;28;20046;-47
2023/05/23 00:31:12;;;;;;;8.18;3.42;;;22.10;1.00;;;;;;4998479;28;20048;-47
2023/05/23 00:33:38;;;;;;;6.03;3.40;;;22.10;1.00;;;;;;4997631;28;22008;-47
2023/05/23 00:36:05;;;;;;;7.53;4.00;;;22.10;1.00;;;;;;5001999;28;20509;-49
2023/05/23 00:38:32;;;;;;;4.82;2.80;;;22.10;1.00;;;;;;5023631;28;20033;-47
2023/05/23 00:41:00;;;;;;;9.73;3.92;;;22.10;1.00;;;;;;4990081;28;20505;-47
2023/05/23 00:43:28;;;;;;;9.10;3.25;;;22.10;1.00;;;;;;4984495;28;20050;-47
2023/05/23 00:45:55;;;;;;;7.95;3.70;;;22.00;1.00;;;;;;5001541;28;20060;-47
2023/05/23 00:48:22;;;;;;;6.97;3.78;;;22.00;1.00;;;;;;4997787;28;20045;-47
2023/05/23 00:50:49;;;;;;;7.97;3.42;;;22.00;1.00;;;;;;4997723;28;20391;-48
2023/05/23 00:53:17;;;;;;;8.52;3.97;;;22.00;1.00;;;;;;5015467;28;20045;-47
2023/05/23 00:55:44;;;;;;;9.88;3.53;;;22.00;1.00;;;;;;5001506;28;20124;-47
2023/05/23 00:58:13;;;;;;;9.20;3.47;;;22.00;1.00;;;;;;4997626;28;20053;-48
2023/05/23 01:00:43;;;;;;;8.25;3.92;;;22.00;1.00;;;;;;5015446;28;20084;-46
2023/05/23 01:03:16;;;;;;;6.40;3.40;;;22.00;1.00;;;;;;4997876;28;20400;-48
2023/05/23 01:05:44;;;;;;;9.90;3.70;;;21.90;1.00;;;;;;4999929;28;20402;-48
2023/05/23 01:08:11;;;;;;;8.90;3.13;;;22.00;1.00;;;;;;4997354;28;20041;-48
2023/05/23 01:10:38;;;;;;;8.93;3.55;;;22.00;1.00;;;;;;5015311;28;20077;-48
2023/05/23 01:13:43;;;;;;;9.05;3.40;;;22.00;1.00;;;;;;4997507;28;20045;-47
2023/05/23 01:16:27;;;;;;;8.35;3.03;;;22.00;1.00;;;;;;4994388;28;20537;-47
2023/05/23 01:19:11;;;;;;;7.35;3.75;;;21.90;1.00;;;;;;4996980;28;20052;-47
2023/05/23 01:21:38;;;;;;;;;;;21.90;1.00;;;;;;5015300;28;20480;-48
2023/05/23 01:24:20;;;;;;;11.15;2.92;;;21.90;1.00;;;;;;4997343;28;19922;-47
2023/05/23 01:27:10;;;;;;;6.72;3.67;;;21.90;1.00;;;;;;5011531;28;20077;-48
2023/05/23 01:29:42;;;;;;;7.97;3.75;;;21.90;1.00;;;;;;5011531;28;20041;-48
2023/05/23 01:32:11;;;;;;;8.48;3.42;;;21.90;1.00;;;;;;4997259;28;20064;-47
2023/05/23 01:34:40;;;;;;;8.88;3.63;;;21.90;1.00;;;;;;5016487;28;20045;-47
2023/05/23 01:37:09;;;;;;;6.20;3.03;;;21.80;1.00;;;;;;4996570;28;20038;-48
2023/05/23 01:39:37;;;;;;;10.38;4.05;;;21.90;1.00;;;;;;4996538;28;20060;-47
2023/05/23 01:42:05;;;;;;;6.57;3.58;;;21.80;1.00;;;;;;4995183;28;20048;-47
2023/05/23 01:44:34;;;;;;;10.13;3.30;;;21.80;1.00;;;;;;5008255;28;20074;-47
2023/05/23 01:47:03;;;;;;;7.22;3.15;;;21.80;1.00;;;;;;5014111;28;20401;-47
2023/05/23 01:49:31;;;;;;;6.05;2.67;;;21.80;1.00;;;;;;4996714;28;20061;-48
2023/05/23 01:51:59;;;;;;;7.20;2.83;;;21.80;1.00;;;;;;5014150;28;20052;-48
2023/05/23 01:54:28;;;;;;;6.25;3.17;;;21.80;1.00;;;;;;5001683;28;20592;-47
2023/05/23 01:57:00;;;;;;;7.40;3.45;;;21.80;1.00;;;;;;5015210;28;20236;-48
2023/05/23 01:59:27;;;;;;;7.82;2.75;;;21.80;1.00;;;;;;4996608;28;20045;-46
2023/05/23 02:01:55;;;;;;;6.60;2.50;;;21.80;1.00;;;;;;4996300;28;20046;-47
2023/05/23 02:04:22;;;;;;;9.75;3.60;;;21.80;1.00;;;;;;4997365;28;20050;-46
2023/05/23 02:06:49;;;;;;;6.75;2.80;;;21.80;1.00;;;;;;5002491;28;20080;-47
2023/05/23 02:09:16;;;;;;;7.75;2.85;;;21.80;1.00;;;;;;4996169;28;20100;-47
2023/05/23 02:11:44;;;;;;;7.22;3.13;;;21.80;1.00;;;;;;4996259;28;20050;-47
2023/05/23 02:14:11;;;;;;;8.30;2.75;;;21.80;1.00;;;;;;4997728;28;20515;-47
2023/05/23 02:16:38;;;;;;;9.35;4.03;;;21.80;1.00;;;;;;4999638;28;20493;-47
2023/05/23 02:19:05;;;;;;;7.50;2.50;;;21.80;1.00;;;;;;4995828;28;20056;-47
2023/05/23 02:21:32;;;;;;;6.60;2.28;;;21.70;1.00;;;;;;4996255;28;20050;-47
2023/05/23 02:24:02;;;;;;;8.90;2.47;;;21.70;1.00;;;;;;4997833;28;20050;-47
2023/05/23 02:26:29;;;;;;;7.28;3.10;;;21.70;1.00;;;;;;5016236;28;20037;-47
2023/05/23 02:28:56;;;;;;;7.95;3.13;;;21.70;1.00;;;;;;5013538;28;20040;-47
2023/05/23 02:31:23;;;;;;;7.70;3.60;;;21.70;1.00;;;;;;5013605;28;20117;-47
2023/05/23 02:33:50;;;;;;;5.15;2.30;;;21.70;1.00;;;;;;5013495;28;20042;-47
2023/05/23 02:36:17;;;;;;;5.13;2.65;;;21.70;1.00;;;;;;4998222;28;20038;-50
2023/05/23 02:38:44;;;;;;;7.90;2.83;;;21.70;1.00;;;;;;4995670;28;20046;-48
2023/05/23 02:41:11;;;;;;;6.03;2.63;;;21.70;1.00;;;;;;4996022;28;20042;-47
2023/05/23 02:43:38;;;;;;;6.18;2.88;;;21.70;1.00;;;;;;4999387;28;20049;-48
2023/05/23 02:46:05;;;;;;;6.35;2.90;;;21.60;1.00;;;;;;4999405;28;20053;-48
2023/05/23 02:48:32;;;;;;;5.97;2.10;;;21.60;1.00;;;;;;4995691;28;20045;-47
2023/05/23 02:50:59;;;;;;;6.22;2.50;;;21.70;1.00;;;;;;4995726;28;20053;-47
2023/05/23 02:53:26;;;;;;;7.65;2.78;;;21.60;1.00;;;;;;5013278;28;20398;-47
2023/05/23 02:55:53;;;;;;;8.50;3.03;;;21.60;1.00;;;;;;5000441;28;20038;-49
2023/05/23 02:58:20;;;;;;;7.60;2.78;;;21.60;1.00;;;;;;4995262;28;20064;-47
2023/05/23 03:00:47;;;;;;;5.93;2.13;;;21.60;1.00;;;;;;4995240;28;20581;-47
2023/05/23 03:03:13;;;;;;;7.22;2.55;;;21.60;1.00;;;;;;4995519;28;20529;-49
2023/05/23 03:05:41;;;;;;;9.40;3.10;;;21.60;1.00;;;;;;4999377;28;20069;-47
2023/05/23 03:08:08;;;;;;;7.53;2.78;;;21.60;1.00;;;;;;5003586;28;20048;-48
2023/05/23 03:10:35;;;;;;;6.95;2.95;;;21.60;1.00;;;;;;5013101;28;20049;-46
2023/05/23 03:13:01;;;;;;;6.55;2.50;;;21.60;1.00;;;;;;4994992;28;20646;-47
2023/05/23 03:15:29;;;;;;;8.38;3.08;;;21.60;1.00;;;;;;5000856;28;20500;-47
2023/05/23 03:17:56;;;;;;;10.80;3.03;;;21.60;1.00;;;;;;4994999;28;20049;-47
2023/05/23 03:20:23;;;;;;;10.50;3.25;;;21.50;1.00;;;;;;4995395;28;20069;-48
2023/05/23 03:22:50;;;;;;;6.13;2.70;;;21.50;1.00;;;;;;4994771;28;20042;-48
2023/05/23 03:25:16;;;;;;;5.95;2.42;;;21.50;1.00;;;;;;4998662;28;20397;-50
2023/05/23 03:27:43;;;;;;;4.32;2.92;;;21.50;1.00;;;;;;4994815;28;20501;-48
2023/05/23 03:30:11;;;;;;;8.20;3.03;;;21.50;1.00;;;;;;4995050;28;20042;-48
2023/05/23 03:32:38;;;;;;;6.45;2.85;;;21.50;1.00;;;;;;4994898;28;20049;-48
2023/05/23 03:35:05;;;;;;;5.68;2.50;;;21.50;1.00;;;;;;4999300;28;20034;-47
2023/05/23 03:37:32;;;;;;;9.18;2.63;;;21.50;1.00;;;;;;5012358;28;20049;-47
2023/05/23 03:39:59;;;;;;;6.05;2.65;;;21.50;1.00;;;;;;4994866;28;20056;-47
2023/05/23 03:42:27;;;;;;;6.25;2.35;;;21.50;1.00;;;;;;4992212;28;20034;-47
2023/05/23 03:44:53;;;;;;;8.38;2.85;;;21.50;1.00;;;;;;4975241;28;20061;-47
2023/05/23 03:47:23;;;;;;;9.55;4.35;;;21.50;1.00;;;;;;4975101;28;20049;-47
2023/05/23 03:49:50;;;;;;;5.60;2.63;;;21.40;1.00;;;;;;4976018;28;20046;-49
2023/05/23 03:52:17;;;;;;;6.05;2.38;;;21.40;1.00;;;;;;4982568;28;20109;-47
2023/05/23 03:54:44;;;;;;;4.75;3.10;;;21.40;1.00;;;;;;4974921;28;20052;-48
2023/05/23 03:57:11;;;;;;;5.07;2.80;;;21.40;1.00;;;;;;4989498;28;20038;-47
2023/05/23 03:59:38;;;;;;;6.25;2.33;;;21.40;1.00;;;;;;4993251;28;20092;-48
2023/05/23 04:02:09;;;;;;;9.05;2.78;;;21.40;1.00;;;;;;4993822;28;20353;-47
2023/05/23 04:04:36;;;;;;;9.15;2.60;;;21.40;1.00;;;;;;4993362;28;20076;-47
2023/05/23 04:07:04;;;;;;;11.15;2.53;;;21.40;1.00;;;;;;4992878;28;20046;-48
2023/05/23 04:09:31;;;;;;;7.10;2.25;;;21.40;1.00;;;;;;4990157;28;20061;-47
2023/05/23 04:11:59;;;;;;;7.45;2.55;;;21.40;1.00;;;;;;5000699;28;20128;-47
2023/05/23 04:14:27;;;;;;;7.38;2.63;;;21.40;1.00;;;;;;4990265;28;20053;-47
2023/05/23 04:16:55;;;;;;;7.22;3.08;;;21.40;1.00;;;;;;4991909;28;20050;-47
2023/05/23 04:19:22;;;;;;;8.00;2.60;;;21.40;1.00;;;;;;4993594;28;20133;-47
2023/05/23 04:21:51;;;;;;;6.82;2.97;;;21.40;1.00;;;;;;4993050;28;20497;-49
2023/05/23 04:24:18;;;;;;;6.05;2.38;;;21.40;1.00;;;;;;4992992;28;20046;-48
2023/05/23 04:26:44;;;;;;;10.93;3.47;;;21.40;1.00;;;;;;4981895;28;20573;-48
2023/05/23 04:29:11;;;;;;;8.20;2.95;;;21.40;1.00;;;;;;4991285;28;20121;-47
2023/05/23 04:31:38;;;;;;;22.27;2.63;;;21.30;1.00;;;;;;4994148;28;20456;-47
2023/05/23 04:34:06;;;;;;;7.45;3.03;;;21.30;1.00;;;;;;4994035;28;20061;-47
2023/05/23 04:36:37;;;;;;;11.83;2.97;;;21.30;1.00;;;;;;4994167;28;20096;-47
2023/05/23 04:39:05;;;;;;;6.65;2.70;;;21.30;1.00;;;;;;5011823;28;20046;-47
2023/05/23 04:41:37;;;;;;;9.10;2.63;;;21.30;1.00;;;;;;4996384;28;20042;-46
2023/05/23 04:44:14;;;;;;;9.30;2.42;;;21.30;1.00;;;;;;5004098;28;20050;-47
2023/05/23 04:46:47;;;;;;;11.05;2.08;;;21.20;1.00;;;;;;4994056;28;20053;-47
2023/05/23 04:49:25;;;;;;;8.15;2.95;;;21.20;1.00;;;;;;4994297;28;20136;-47
2023/05/23 04:51:52;;;;;;;8.77;2.35;;;21.20;1.00;;;;;;4994095;28;20076;-47
2023/05/23 04:54:30;;;;;;;5.57;2.10;;;21.20;1.00;;;;;;4993772;28;20107;-47
2023/05/23 04:56:59;;;;;;;7.13;2.70;;;21.20;1.00;;;;;;4993811;28;20046;-47
2023/05/23 04:59:28;;;;;;;6.97;2.78;;;21.20;1.00;;;;;;4993937;28;20136;-47
2023/05/23 05:01:55;;;;;;;4.38;1.90;;;21.20;1.00;;;;;;5011652;28;20034;-47
2023/05/23 05:04:22;;;;;;;6.63;2.40;;;21.20;1.00;;;;;;4993945;28;20041;-50
2023/05/23 05:06:51;;;;;;;4.97;2.00;;;21.20;1.00;;;;;;5011703;28;20401;-47
2023/05/23 05:09:18;;;;;;;6.45;1.63;;;21.10;1.00;;;;;;4993796;28;20049;-47
2023/05/23 05:11:45;;;;;;;5.28;1.88;;;21.10;1.00;;;;;;4993940;28;20046;-48
2023/05/23 05:14:13;;;;;;;4.68;2.03;;;21.20;1.00;;;;;;4993499;28;20057;-47
2023/05/23 05:16:41;;;;;;;7.22;2.13;;;21.10;1.00;;;;;;5013875;28;20042;-48
2023/05/23 05:19:08;;;;;;;7.65;2.67;;;21.10;1.00;;;;;;4997105;28;20048;-47
2023/05/23 05:21:35;;;;;;;7.63;2.53;;;21.10;1.00;;;;;;4997308;28;20045;-47
2023/05/23 05:24:03;;;;;;;8.48;2.22;;;21.10;1.00;;;;;;4997128;28;20398;-47
2023/05/23 05:26:30;;;;;;;6.43;2.17;;;21.10;1.00;;;;;;5014870;28;20081;-48
2023/05/23 05:28:57;;;;;;;8.50;2.90;;;21.10;1.00;;;;;;4996956;28;20054;-47
2023/05/23 05:31:24;;;;;;;6.25;3.05;;;21.10;1.00;;;;;;4997087;28;20045;-50
2023/05/23 05:33:52;;;;;;;7.93;2.30;;;21.10;1.00;;;;;;4996942;28;20548;-49
2023/05/23 05:36:19;;;;;;;6.82;2.25;;;21.10;1.00;;;;;;5006708;28;20042;-46
2023/05/23 05:38:46;;;;;;;6.95;2.60;;;21.10;1.00;;;;;;4996550;28;20136;-47
2023/05/23 05:41:15;;;;;;;6.40;2.92;;;21.10;1.00;;;;;;4996826;28;20042;-47
2023/05/23 05:43:46;;;;;;;5.50;2.42;;;21.10;1.00;;;;;;4993068;28;20112;-47
2023/05/23 05:46:13;;;;;;;5.88;2.25;;;21.10;1.00;;;;;;4996863;28;20489;-47
2023/05/23 05:48:40;;;;;;;4.38;1.77;;;21.10;1.00;;;;;;4996676;28;20056;-46
2023/05/23 05:51:10;;;;;;;7.47;2.63;;;21.10;1.00;;;;;;4996736;28;20037;-47
2023/05/23 05:53:38;;;;;;;6.28;2.50;;;21.10;1.00;;;;;;4996436;28;20049;-47
2023/05/23 05:56:07;;;;;;;4.05;1.63;;;21.10;1.00;;;;;;4996537;28;20129;-47
2023/05/23 05:58:35;;;;;;;3.92;1.98;;;21.10;1.00;;;;;;4996749;28;20100;-47
2023/05/23 06:01:06;;;;;;;4.65;1.95;;;21.10;1.00;;;;;;4996633;28;20045;-47
2023/05/23 06:03:33;;;;;;;5.13;2.58;;;21.10;1.00;;;;;;4996563;28;20060;-47
2023/05/23 06:06:00;;;;;;;8.32;3.13;;;21.10;1.00;;;;;;4996367;28;20416;-49
2023/05/23 06:08:27;;;;;;;4.28;1.73;;;21.10;1.00;;;;;;4996166;28;20045;-47
2023/05/23 06:10:55;;;;;;;5.20;1.65;;;21.10;1.00;;;;;;4996464;28;20113;-47
2023/05/23 06:13:24;;;;;;;4.55;1.50;;;21.10;1.00;;;;;;5013827;28;20034;-48
2023/05/23 06:15:52;;;;;;;5.60;2.28;;;21.10;1.00;;;;;;4996122;28;20046;-48
2023/05/23 06:18:19;;;;;;;9.32;2.17;;;21.10;1.00;;;;;;4996455;28;20516;-49
2023/05/23 06:20:47;;;;;;;2.83;1.75;;;21.10;1.00;;;;;;4981204;28;20466;-47
2023/05/23 06:23:15;;;;;;;8.15;1.50;;;21.10;1.00;;;;;;4976641;28;20045;-47
2023/05/23 06:25:44;;;;;;;11.43;3.00;;;21.10;1.00;;;;;;4976752;28;20494;-46
2023/05/23 06:28:11;;;;;;;5.10;1.67;;;21.10;1.00;;;;;;4976039;28;20133;-47
2023/05/23 06:30:38;;;;;;;5.72;2.20;;;21.20;1.00;;;;;;4976916;28;20461;-46
2023/05/23 06:33:07;;;;;;;5.30;1.50;;;21.20;1.00;;;;;;4976154;28;20084;-47
2023/05/23 06:35:34;;;;;;;6.65;1.83;;;21.20;1.00;;;;;;4976540;28;20082;-47
2023/05/23 06:38:00;;;;;;;10.20;2.13;;;21.20;1.00;;;;;;4993709;28;20069;-48
2023/05/23 06:40:27;;;;;;;3.70;1.70;;;21.20;1.00;;;;;;4976662;28;20046;-47
2023/05/23 06:42:55;;;;;;;4.78;1.92;;;21.20;1.00;;;;;;5006440;28;20065;-47
2023/05/23 06:45:29;;;;;;;4.65;1.80;;;21.30;1.00;;;;;;4976308;28;20453;-49
2023/05/23 06:47:56;;;;;;;5.47;1.30;;;21.30;1.00;;;;;;4993379;28;20038;-47
2023/05/23 06:50:23;;;;;;;11.10;2.15;;;21.30;1.00;;;;;;4976403;28;20045;-47
2023/05/23 06:52:51;;;;;;;5.78;1.67;;;21.30;1.00;;;;;;4975961;28;20053;-47
2023/05/23 06:55:19;;;;;;;7.18;1.90;;;21.30;1.00;;;;;;4995259;28;20041;-48
2023/05/23 06:57:50;;;;;;;10.63;2.13;;;21.30;1.00;;;;;;4995340;28;20069;-47
2023/05/23 07:00:19;;;;;;;7.43;2.13;;;21.30;1.00;;;;;;4987330;28;20125;-49
2023/05/23 07:03:09;;;;;;;7.32;1.67;;;21.30;1.00;;;;;;5010339;28;20406;-50
2023/05/23 07:05:36;;;;;;;11.77;1.90;;;21.30;1.00;;;;;;4975855;28;20129;-47
2023/05/23 07:08:09;;;;;;;11.30;2.00;;;21.40;1.00;;;;;;4975707;28;20074;-47
2023/05/23 07:10:40;;;;;;;10.23;2.85;;;21.40;1.00;;;;;;4975927;28;20078;-47
2023/05/23 07:13:20;;;;;;;5.35;1.90;;;21.40;1.00;;;;;;4975759;28;20065;-48
2023/05/23 07:15:47;;;;;;;7.57;1.88;;;21.40;1.00;;;;;;4993134;28;20093;-50
2023/05/23 07:18:14;;;;;;;8.48;2.03;;;21.40;1.00;;;;;;4975569;28;20046;-47
2023/05/23 07:20:41;;;;;;;9.63;2.30;;;21.40;1.00;;;;;;4975763;28;20042;-48
2023/05/23 07:23:15;;;;;;;6.15;1.83;;;21.40;1.00;;;;;;4975457;28;20473;-47
2023/05/23 07:25:45;;;;;;;6.57;1.40;;;21.40;1.00;;;;;;4975406;28;20576;-48
2023/05/23 07:28:33;;;;;;;5.95;1.83;;;21.30;1.00;;;;;;4988408;28;20047;-47
2023/05/23 07:31:00;;;;;;;5.50;1.63;;;21.40;1.00;;;;;;4994902;28;20046;-51
2023/05/23 07:33:28;;;;;;;6.93;2.15;;;21.40;1.00;;;;;;4994631;28;20056;-47
2023/05/23 07:36:00;;;;;;;8.32;1.90;;;21.40;1.00;;;;;;4994541;28;20073;-47
2023/05/23 07:38:27;;;;;;;6.60;1.23;;;21.40;1.00;;;;;;4993875;28;20050;-47
2023/05/23 07:40:54;;;;;;;7.25;2.60;;;21.40;1.00;;;;;;5012795;28;20060;-48
2023/05/23 07:43:38;;;;;;;6.72;2.08;;;21.40;1.00;;;;;;5003721;28;20042;-47
2023/05/23 07:46:05;;;;;;;5.63;1.70;;;21.40;1.00;;;;;;4975142;28;20433;-47
2023/05/23 07:48:32;;;;;;;3.63;1.13;;;21.40;1.00;;;;;;4975167;28;20049;-47
2023/05/23 07:50:59;;;;;;;7.75;1.65;;;21.40;1.00;;;;;;4983540;28;20045;-48
2023/05/23 07:53:27;;;;;;;5.47;2.33;;;21.40;1.00;;;;;;4994437;28;20501;-51
2023/05/23 07:55:55;;;;;;;8.60;2.20;;;21.40;1.00;;;;;;4994352;28;20045;-47
2023/05/23 07:58:25;;;;;;;7.45;1.73;;;21.40;1.00;;;;;;4994605;28;20050;-47
2023/05/23 08:00:52;;;;;;;6.85;1.90;;;21.40;1.00;;;;;;4994363;28;20401;-50
2023/05/23 08:03:51;;;;;;;8.00;1.42;;;21.40;1.00;;;;;;5002341;28;20502;-49
2023/05/23 08:06:24;;;;;;;4.85;2.25;;;21.40;1.00;;;;;;4994556;28;20049;-50
2023/05/23 08:08:52;;;;;;;5.10;1.83;;;21.40;1.00;;;;;;4994260;28;20413;-48
2023/05/23 08:11:19;;;;;;;6.72;2.05;;;21.40;1.00;;;;;;5012007;28;20050;-48
2023/05/23 08:13:49;;;;;;;7.50;1.75;;;21.40;1.00;;;;;;4994322;28;20048;-47
2023/05/23 08:16:36;;;;;;;8.85;2.38;;;21.40;1.00;;;;;;5012311;28;20131;-48
2023/05/23 08:19:07;;;;;;;9.73;2.67;;;21.40;1.00;;;;;;4994335;28;20041;-48
2023/05/23 08:21:35;;;;;;;6.55;2.22;;;21.40;1.00;;;;;;4994337;28;20490;-51
2023/05/23 08:24:02;;;;;;;8.52;1.60;;;21.40;1.00;;;;;;4993895;28;20505;-48
2023/05/23 08:26:33;;;;;;;4.40;1.73;;;21.40;1.00;;;;;;4987106;28;20057;-47
2023/05/23 08:29:01;;;;;;;8.82;1.75;;;21.40;1.00;;;;;;4994094;28;20050;-47
2023/05/23 08:31:30;;;;;;;4.43;2.33;;;21.40;1.00;;;;;;4994330;28;20145;-50
2023/05/23 08:33:58;;;;;;;7.15;2.38;;;21.40;1.00;;;;;;4994163;28;20145;-48
2023/05/23 08:36:25;;;;;;;5.15;1.67;;;21.40;1.00;;;;;;4994150;28;20042;-48
2023/05/23 08:38:52;;;;;;;11.52;2.25;;;21.40;1.00;;;;;;4994044;28;20088;-51
2023/05/23 08:41:26;;;;;;;6.93;1.77;;;21.40;1.00;;;;;;5012636;28;20073;-50
2023/05/23 08:44:00;;;;;;;;;;;21.40;1.00;;;;;;4982165;28;20167;-47
2023/05/23 08:46:32;;;;;;;6.88;1.80;;;21.40;1.00;;;;;;4971502;28;20412;-47
2023/05/23 08:48:59;;;;;;;7.93;2.05;;;21.40;1.00;;;;;;4993963;28;20069;-47
2023/05/23 08:51:30;;;;;;;9.55;2.10;;;21.40;1.00;;;;;;4997693;28;20417;-47
2023/05/23 08:54:01;;;;;;;8.68;2.35;;;21.40;1.00;;;;;;4981955;28;20161;-46
2023/05/23 08:56:29;;;;;;;5.50;2.28;;;21.40;1.00;;;;;;4997756;28;20525;-47
2023/05/23 08:58:57;;;;;;;7.40;2.20;;;21.40;1.00;;;;;;4997739;28;20073;-46
2023/05/23 09:01:26;;;;;;;7.95;2.10;;;21.40;1.00;;;;;;4978034;28;20046;-47
2023/05/23 09:04:01;;;;;;;5.53;2.08;;;21.40;1.00;;;;;;4978142;28;20046;-48
2023/05/23 09:06:36;;;;;;;5.65;1.58;;;21.40;1.00;;;;;;4978319;28;20047;-47
2023/05/23 09:09:04;;;;;;;9.25;2.50;;;21.40;1.00;;;;;;4977963;28;20068;-46
2023/05/23 09:11:32;;;;;;;7.65;2.22;;;21.40;1.00;;;;;;4977926;28;20046;-49
2023/05/23 09:14:06;;;;;;;5.18;1.88;;;21.40;1.00;;;;;;4977989;28;20050;-48
2023/05/23 09:16:34;;;;;;;9.68;2.22;;;21.40;1.00;;;;;;4978101;28;20100;-49
2023/05/23 09:19:14;;;;;;;5.32;1.92;;;21.40;1.00;;;;;;4978358;28;20053;-47
2023/05/23 09:21:49;;;;;;;6.38;1.80;;;21.40;1.00;;;;;;4997326;28;20046;-51
2023/05/23 09:24:21;;;;;;;;;;;21.40;1.00;;;;;;4997664;28;20045;-47
2023/05/23 09:26:48;;;;;;;7.40;2.13;;;21.40;1.00;;;;;;4997376;28;19925;-51
2023/05/23 09:29:20;;;;;;;4.78;1.75;;;21.40;1.00;;;;;;4996901;28;20100;-49
2023/05/23 09:31:47;;;;;;;6.03;2.70;;;21.40;1.00;;;;;;4997251;28;20081;-47
2023/05/23 09:34:14;;;;;;;7.38;2.00;;;21.40;1.00;;;;;;4997089;28;20049;-53
2023/05/23 09:36:42;;;;;;;8.18;2.67;;;21.40;1.00;;;;;;4996988;28;20042;-47
2023/05/23 09:39:11;;;;;;;4.95;1.58;;;21.40;1.00;;;;;;4979952;28;20594;-47
2023/05/23 09:41:38;;;;;;;7.13;2.05;;;21.40;1.00;;;;;;4982403;28;20082;-47
2023/05/23 09:44:08;;;;;;;8.73;2.40;;;21.40;1.00;;;;;;4983815;28;20043;-48
2023/05/23 09:46:37;;;;;;;6.53;2.22;;;21.40;1.00;;;;;;4977605;28;20083;-47
2023/05/23 09:49:15;;;;;;;4.57;1.85;;;21.40;1.00;;;;;;4994857;28;20516;-50
2023/05/23 09:51:43;;;;;;;7.25;2.10;;;21.40;1.00;;;;;;4996827;28;20057;-48
2023/05/23 09:54:11;;;;;;;7.68;1.98;;;21.40;1.00;;;;;;4996564;28;20073;-47
2023/05/23 09:56:42;;;;;;;6.22;1.75;;;21.40;1.00;;;;;;5014582;28;20489;-51
2023/05/23 09:59:12;;;;;;;5.05;1.42;;;21.40;1.00;;;;;;5014031;28;20049;-48
2023/05/23 10:01:41;;;;;;;6.55;2.33;;;21.40;1.00;;;;;;5013481;28;20042;-47
2023/05/23 10:04:08;;;;;;;8.35;2.25;;;21.40;1.00;;;;;;5013922;28;20128;-47
2023/05/23 10:06:46;;;;;;;11.20;2.22;;;21.40;1.00;;;;;;4996823;28;20058;-47
2023/05/23 10:09:16;;;;;;;10.48;1.85;;;21.40;1.00;;;;;;5013818;28;20096;-47
2023/05/23 10:11:58;;;;;;;6.97;2.25;;;21.40;1.00;;;;;;5014148;28;20052;-47
2023/05/23 10:14:29;;;;;;;6.55;1.80;;;21.40;1.00;;;;;;4996317;28;20042;-48
2023/05/23 10:17:20;;;;;;;4.07;1.90;;;21.50;1.00;;;;;;5013929;28;20048;-48
2023/05/23 10:19:57;;;;;;;10.98;2.13;;;21.40;1.00;;;;;;5014542;28;20433;-49
2023/05/23 10:22:25;;;;;;;6.60;1.60;;;21.40;1.00;;;;;;5013770;28;20034;-50
2023/05/23 10:24:52;;;;;;;5.93;1.63;;;21.40;1.00;;;;;;5014155;28;20473;-48
2023/05/23 10:27:19;;;;;;;7.47;1.42;;;21.40;1.00;;;;;;5013570;28;20042;-47
2023/05/23 10:29:47;;;;;;;5.28;1.38;;;21.40;1.00;;;;;;5013701;28;20038;-48
2023/05/23 10:32:15;;;;;;;8.10;2.00;;;21.40;1.00;;;;;;5013496;28;20037;-48
2023/05/23 10:35:03;;;;;;;5.63;1.65;;;21.40;1.00;;;;;;5013757;28;20497;-46
2023/05/23 10:37:36;;;;;;;8.85;1.85;;;21.40;1.00;;;;;;5013556;28;20723;-47
2023/05/23 10:40:30;;;;;;;6.72;2.28;;;21.40;1.00;;;;;;5013662;28;20036;-48
2023/05/23 10:43:16;;;;;;;6.93;1.83;;;21.50;1.00;;;;;;5012907;28;20030;-48
2023/05/23 10:45:44;;;;;;;6.07;1.08;;;21.50;1.00;;;;;;5006987;28;20070;-47
2023/05/23 10:48:24;;;;;;;6.35;2.00;;;21.50;1.00;;;;;;5012899;28;20046;-51
2023/05/23 10:51:07;;;;;;;7.82;1.83;;;21.50;1.00;;;;;;5013402;28;20046;-49
2023/05/23 10:53:35;;;;;;;;;;;21.50;1.00;;;;;;5005685;28;20041;-49
2023/05/23 10:56:07;;;;;;;6.50;1.63;;;21.50;1.00;;;;;;5013205;28;19928;-47
2023/05/23 10:58:40;;;;;;;6.10;1.65;;;21.40;1.00;;;;;;5013130;28;20088;-49
2023/05/23 11:01:15;;;;;;;3.60;1.40;;;21.50;1.00;;;;;;5013417;28;20030;-49
2023/05/23 11:03:45;;;;;;;3.70;1.25;;;21.50;1.00;;;;;;5013019;28;20048;-49
2023/05/23 11:06:43;;;;;;;4.30;1.38;;;21.50;1.00;;;;;;5012764;28;20044;-48
2023/05/23 11:09:19;;;;;;;7.00;1.70;;;21.50;1.00;;;;;;5012659;28;20034;-49
2023/05/23 11:12:04;;;;;;;4.30;1.80;;;21.50;1.00;;;;;;5006340;28;20189;-49
2023/05/23 11:14:36;;;;;;;7.03;2.15;;;21.50;1.00;;;;;;5012821;28;20042;-49
2023/05/23 11:17:12;;;;;;;5.72;1.67;;;21.40;1.00;;;;;;5005193;28;20048;-49
2023/05/23 11:19:54;;;;;;;8.52;1.90;;;21.50;1.00;;;;;;5005700;28;20504;-47
2023/05/23 11:22:27;;;;;;;4.18;1.77;;;21.50;1.00;;;;;;5012858;28;20030;-49
2023/05/23 11:24:55;;;;;;;7.30;1.98;;;21.40;1.00;;;;;;5012714;28;20045;-49
2023/05/23 11:27:33;;;;;;;8.27;1.73;;;21.50;1.00;;;;;;5012457;28;20049;-50
2023/05/23 11:30:07;;;;;;;8.27;2.05;;;21.50;1.00;;;;;;5013097;28;20046;-47
2023/05/23 11:32:35;;;;;;;8.75;2.30;;;21.50;1.00;;;;;;5012766;28;20046;-48
2023/05/23 11:35:05;;;;;;;5.85;1.77;;;21.50;1.00;;;;;;5012745;28;20466;-49
2023/05/23 11:37:32;;;;;;;4.70;1.58;;;21.50;1.00;;;;;;5012562;28;20473;-47
2023/05/23 11:40:32;;;;;;;7.55;1.63;;;21.50;1.00;;;;;;5012666;28;20038;-47
2023/05/23 11:43:01;;;;;;;5.68;1.70;;;21.50;1.00;;;;;;5012979;28;20085;-50
2023/05/23 11:45:33;;;;;;;4.50;1.98;;;21.50;1.00;;;;;;4993080;28;20178;-49
2023/05/23 11:48:16;;;;;;;6.82;2.97;;;21.50;1.00;;;;;;4992827;28;20042;-49
2023/05/23 11:50:45;;;;;;;;;;;21.50;1.00;;;;;;5005991;28;20072;-47
2023/05/23 11:53:15;;;;;;;8.23;1.38;;;21.50;1.00;;;;;;5012320;28;19968;-50
2023/05/23 11:55:48;;;;;;;9.63;1.58;;;21.40;1.00;;;;;;5012565;28;20125;-50
2023/05/23 11:58:15;;;;;;;9.27;2.17;;;21.50;1.00;;;;;;5012234;28;20124;-47
2023/05/23 12:00:43;;;;;;;6.95;2.67;;;21.40;1.00;;;;;;4999973;28;20575;-52
2023/05/23 12:03:10;;;;;;;7.35;1.52;;;21.50;1.00;;;;;;4992790;28;20045;-51
2023/05/23 12:05:38;;;;;;;5.88;1.10;;;21.50;1.00;;;;;;5004391;28;20030;-48
2023/05/23 12:08:05;;;;;;;5.18;1.27;;;21.40;1.00;;;;;;5004940;28;20046;-51
2023/05/23 12:10:31;;;;;;;8.23;1.17;;;21.50;1.00;;;;;;5011603;28;20064;-50
2023/05/23 12:12:59;;;;;;;6.57;2.03;;;21.50;1.00;;;;;;5012025;28;20042;-49
2023/05/23 12:15:27;;;;;;;6.50;1.60;;;21.50;1.00;;;;;;5012115;28;20077;-49
2023/05/23 12:17:55;;;;;;;5.80;1.83;;;21.50;1.00;;;;;;5012012;28;20080;-48
2023/05/23 12:20:25;;;;;;;8.90;1.92;;;21.50;1.00;;;;;;5012224;28;20088;-48
2023/05/23 12:22:53;;;;;;;7.50;2.42;;;21.50;1.00;;;;;;5012210;28;20058;-47
2023/05/23 12:25:22;;;;;;;3.50;0.82;;;21.50;1.00;;;;;;4996748;28;20042;-50
2023/05/23 12:27:48;;;;;;;3.97;1.77;;;21.50;1.00;;;;;;5016072;28;20045;-50
2023/05/23 12:30:16;;;;;;;4.50;1.20;;;21.50;1.00;;;;;;4998767;28;20045;-47
2023/05/23 12:32:44;;;;;;;5.45;1.40;;;21.40;1.00;;;;;;5016222;28;20092;-47
2023/05/23 12:35:13;;;;;;;4.15;1.60;;;21.50;1.00;;;;;;5015937;28;20049;-47
2023/05/23 12:37:47;;;;;;;4.25;1.17;;;21.50;1.00;;;;;;5015694;28;20030;-49
2023/05/23 12:40:18;;;;;;;6.95;1.73;;;21.50;1.00;;;;;;5016263;28;20116;-49
2023/05/23 12:42:57;;;;;;;8.13;1.77;;;21.50;1.00;;;;;;5018918;28;20394;-49
2023/05/23 12:45:32;;;;;;;6.43;1.38;;;21.50;1.00;;;;;;4996340;28;20199;-50
2023/05/23 12:48:00;;;;;;;9.30;1.60;;;21.50;1.00;;;;;;4996282;28;20049;-48
2023/05/23 12:50:27;;;;;;;4.28;1.17;;;21.50;1.00;;;;;;4995839;28;20446;-47
2023/05/23 12:52:54;;;;;;;7.32;2.03;;;21.50;1.00;;;;;;4995970;28;20038;-47
2023/05/23 12:55:21;;;;;;;4.88;2.22;;;21.50;1.00;;;;;;4995910;28;20046;-46
2023/05/23 12:57:48;;;;;;;6.10;1.48;;;21.50;1.00;;;;;;4995682;28;20057;-48
2023/05/23 13:00:15;;;;;;;4.90;1.58;;;21.50;1.00;;;;;;4978565;28;20034;-47
2023/05/23 13:02:42;;;;;;;8.07;2.35;;;21.50;1.00;;;;;;4995739;28;20126;-47
2023/05/23 13:05:09;;;;;;;10.88;2.40;;;21.50;1.00;;;;;;4995812;28;20442;-47
2023/05/23 13:07:36;;;;;;;6.97;1.63;;;21.50;1.00;;;;;;4995639;28;20530;-45
2023/05/23 13:10:04;;;;;;;3.55;0.95;;;21.50;1.00;;;;;;4995760;28;20485;-46
2023/05/23 13:12:33;;;;;;;7.00;1.52;;;21.50;1.00;;;;;;4995558;28;20719;-46